createdAt,value
2022-12-20T00:01:19.760Z,47.33
2022-12-20T00:03:51.440Z,48.08
2022-12-20T00:06:19.442Z,45.25
2022-12-20T00:08:47.407Z,44.60
2022-12-20T00:11:14.830Z,46.97
2022-12-20T00:13:42.191Z,47.80
2022-12-20T00:16:18.855Z,46.90
2022-12-20T00:18:46.385Z,45.65
2022-12-20T00:21:15.764Z,47.10
2022-12-20T00:23:43.108Z,45.88
2022-12-20T00:26:13.748Z,45.90
2022-12-20T00:28:42.745Z,46.92
2022-12-20T00:31:12.335Z,45.45
2022-12-20T00:33:41.263Z,47.95
2022-12-20T00:36:09.741Z,44.40
2022-12-20T00:38:37.447Z,46.58
2022-12-20T00:41:07.645Z,46.40
2022-12-20T00:43:38.164Z,44.63
2022-12-20T00:46:07.133Z,46.38
2022-12-20T00:48:35.150Z,46.78
2022-12-20T00:51:05.295Z,44.60
2022-12-20T00:53:33.344Z,46.35
2022-12-20T00:56:00.806Z,46.65
2022-12-20T00:58:28.893Z,45.63
2022-12-20T01:00:57.747Z,47.28
2022-12-20T01:03:26.409Z,45.60
2022-12-20T01:05:59.415Z,44.47
2022-12-20T01:08:29.199Z,47.42
2022-12-20T01:11:09.575Z,46.15
2022-12-20T01:13:38.715Z,48.83
2022-12-20T01:16:08.369Z,50.65
2022-12-20T01:18:35.937Z,51.15
2022-12-20T01:21:06.717Z,50.53
2022-12-20T01:23:34.197Z,49.42
2022-12-20T01:26:04.813Z,48.08
2022-12-20T01:28:33.036Z,46.85
2022-12-20T01:31:00.439Z,47.80
2022-12-20T01:33:28.187Z,47.05
2022-12-20T01:35:57.608Z,45.83
2022-12-20T01:38:25.074Z,46.13
2022-12-20T01:40:53.232Z,42.63
2022-12-20T01:43:21.788Z,45.40
2022-12-20T01:45:49.693Z,48.10
2022-12-20T01:48:21.810Z,45.42
2022-12-20T01:50:50.112Z,45.58
2022-12-20T01:53:20.120Z,44.92
2022-12-20T01:55:47.913Z,44.38
2022-12-20T01:58:17.971Z,46.63
2022-12-20T02:00:45.687Z,47.13
2022-12-20T02:03:16.706Z,48.58
2022-12-20T02:05:47.695Z,46.00
2022-12-20T02:08:19.387Z,48.03
2022-12-20T02:11:20.060Z,46.80
2022-12-20T02:14:11.973Z,45.83
2022-12-20T02:17:02.439Z,44.38
2022-12-20T02:20:00.911Z,45.78
2022-12-20T02:22:52.997Z,45.30
2022-12-20T02:25:57.232Z,44.47
2022-12-20T02:28:27.467Z,44.83
2022-12-20T02:30:57.328Z,45.08
2022-12-20T02:33:27.260Z,44.90
2022-12-20T02:35:54.900Z,44.35
2022-12-20T02:38:30.577Z,43.75
2022-12-20T02:41:16.872Z,42.42
2022-12-20T02:44:05.964Z,44.53
2022-12-20T02:46:35.149Z,41.67
2022-12-20T02:49:09.192Z,40.80
2022-12-20T02:51:37.040Z,44.05
2022-12-20T02:54:05.248Z,43.30
2022-12-20T02:56:41.776Z,42.58
2022-12-20T02:59:16.993Z,42.33
2022-12-20T03:01:51.604Z,41.97
2022-12-20T03:04:22.773Z,40.58
2022-12-20T03:07:13.434Z,41.83
2022-12-20T03:09:43.026Z,41.75
2022-12-20T03:12:12.004Z,41.92
2022-12-20T03:14:40.796Z,42.53
2022-12-20T03:17:10.479Z,43.20
2022-12-20T03:19:38.932Z,41.90
2022-12-20T03:22:06.733Z,42.13
2022-12-20T03:24:34.324Z,45.15
2022-12-20T03:27:06.063Z,43.60
2022-12-20T03:29:33.514Z,41.38
2022-12-20T03:32:01.197Z,44.15
2022-12-20T03:34:28.676Z,44.70
2022-12-20T03:36:56.058Z,43.47
2022-12-20T03:39:23.599Z,44.05
2022-12-20T03:41:53.971Z,43.70
2022-12-20T03:44:21.652Z,44.50
2022-12-20T03:46:50.047Z,42.25
2022-12-20T03:49:18.641Z,44.10
2022-12-20T03:51:50.087Z,43.78
2022-12-20T03:54:17.748Z,45.42
2022-12-20T03:57:01.585Z,42.17
2022-12-20T03:59:31.143Z,42.33
2022-12-20T04:02:00.193Z,41.53
2022-12-20T04:04:29.996Z,41.58
2022-12-20T04:06:57.436Z,40.58
2022-12-20T04:09:24.865Z,43.22
2022-12-20T04:11:57.644Z,44.95
2022-12-20T04:14:25.064Z,43.47
2022-12-20T04:16:52.456Z,43.97
2022-12-20T04:19:22.821Z,43.08
2022-12-20T04:21:50.570Z,41.50
2022-12-20T04:24:20.002Z,44.35
2022-12-20T04:27:11.440Z,43.38
2022-12-20T04:29:38.998Z,44.00
2022-12-20T04:32:09.675Z,43.50
2022-12-20T04:34:37.071Z,40.45
2022-12-20T04:37:04.851Z,43.45
2022-12-20T04:39:43.682Z,42.83
2022-12-20T04:42:23.521Z,44.00
2022-12-20T04:44:51.982Z,43.17
2022-12-20T04:47:24.519Z,45.95
2022-12-20T04:49:53.359Z,44.63
2022-12-20T04:52:43.591Z,42.85
2022-12-20T04:55:15.253Z,43.80
2022-12-20T04:57:42.719Z,44.17
2022-12-20T05:00:11.132Z,43.05
2022-12-20T05:02:43.526Z,42.83
2022-12-20T05:05:14.609Z,45.60
2022-12-20T05:07:48.276Z,42.38
2022-12-20T05:10:15.811Z,42.30
2022-12-20T05:12:44.696Z,44.70
2022-12-20T05:15:19.283Z,45.90
2022-12-20T05:17:46.773Z,45.53
2022-12-20T05:20:14.627Z,44.00
2022-12-20T05:23:02.961Z,43.75
2022-12-20T05:25:48.896Z,44.03
2022-12-20T05:28:17.165Z,45.45
2022-12-20T05:30:44.676Z,42.75
2022-12-20T05:33:12.907Z,44.10
2022-12-20T05:35:42.553Z,44.63
2022-12-20T05:38:12.924Z,43.03
2022-12-20T05:40:41.387Z,45.70
2022-12-20T05:43:09.908Z,46.55
2022-12-20T05:45:50.953Z,45.38
2022-12-20T05:48:22.813Z,45.63
2022-12-20T05:50:50.252Z,44.22
2022-12-20T05:53:40.431Z,47.67
2022-12-20T05:56:08.479Z,48.65
2022-12-20T05:58:38.777Z,49.58
2022-12-20T06:01:07.914Z,51.60
2022-12-20T06:03:40.672Z,55.33
2022-12-20T06:06:15.038Z,54.50
2022-12-20T06:08:45.536Z,50.58
2022-12-20T06:11:21.985Z,51.63
2022-12-20T06:13:57.886Z,52.30
2022-12-20T06:16:25.679Z,55.00
2022-12-20T06:18:55.348Z,55.65
2022-12-20T06:21:23.683Z,75.03
2022-12-20T06:23:53.402Z,58.85
2022-12-20T06:26:23.404Z,57.53
2022-12-20T06:28:56.895Z,58.60
2022-12-20T06:31:36.666Z,60.85
2022-12-20T06:34:04.095Z,56.95
2022-12-20T06:36:35.573Z,62.70
2022-12-20T06:39:07.778Z,58.05
2022-12-20T06:41:41.092Z,54.92
2022-12-20T06:44:08.701Z,52.80
2022-12-20T06:46:36.232Z,52.22
2022-12-20T06:49:04.378Z,60.05
2022-12-20T06:51:33.556Z,54.47
2022-12-20T06:54:01.818Z,66.38
2022-12-20T06:56:37.608Z,74.25
2022-12-20T06:59:10.305Z,64.53
2022-12-20T07:01:37.881Z,71.35
2022-12-20T07:04:05.754Z,68.90
2022-12-20T07:06:33.164Z,59.15
2022-12-20T07:09:00.738Z,56.38
2022-12-20T07:11:28.190Z,56.08
2022-12-20T07:13:57.016Z,55.45
2022-12-20T07:16:24.801Z,55.45
2022-12-20T07:18:54.161Z,53.47
2022-12-20T07:21:22.514Z,52.10
2022-12-20T07:23:49.944Z,50.72
2022-12-20T07:26:17.426Z,53.30
2022-12-20T07:28:45.088Z,52.28
2022-12-20T07:31:12.607Z,51.97
2022-12-20T07:33:40.191Z,54.80
2022-12-20T07:36:11.463Z,51.50
2022-12-20T07:38:39.371Z,54.60
2022-12-20T07:41:08.878Z,53.10
2022-12-20T07:43:36.635Z,54.53
2022-12-20T07:46:05.809Z,51.78
2022-12-20T07:48:33.872Z,52.58
2022-12-20T07:51:17.809Z,54.17
2022-12-20T07:53:50.217Z,54.80
2022-12-20T07:56:21.045Z,57.25
2022-12-20T07:58:52.109Z,57.17
2022-12-20T08:01:21.512Z,53.95
2022-12-20T08:03:53.105Z,53.95
2022-12-20T08:06:21.110Z,54.03
2022-12-20T08:08:54.425Z,55.58
2022-12-20T08:11:23.816Z,55.72
2022-12-20T08:13:57.567Z,53.80
2022-12-20T08:16:25.955Z,54.28
2022-12-20T08:18:53.464Z,54.10
2022-12-20T08:21:39.135Z,54.97
2022-12-20T08:24:06.794Z,54.55
2022-12-20T08:26:38.693Z,54.55
2022-12-20T08:29:06.343Z,55.95
2022-12-20T08:31:33.944Z,54.28
2022-12-20T08:34:01.412Z,52.85
2022-12-20T08:36:28.834Z,52.42
2022-12-20T08:38:56.532Z,50.92
2022-12-20T08:41:24.193Z,50.42
2022-12-20T08:43:51.555Z,51.03
2022-12-20T08:46:19.004Z,50.92
2022-12-20T08:48:46.435Z,52.88
2022-12-20T08:51:13.894Z,48.72
2022-12-20T08:53:41.391Z,54.15
2022-12-20T08:56:12.868Z,54.00
2022-12-20T08:58:41.127Z,54.38
2022-12-20T09:01:11.712Z,53.03
2022-12-20T09:03:40.432Z,57.35
2022-12-20T09:06:10.394Z,55.08
2022-12-20T09:08:39.440Z,56.58
2022-12-20T09:11:09.727Z,51.95
2022-12-20T09:13:43.466Z,55.28
2022-12-20T09:16:14.286Z,57.42
2022-12-20T09:18:42.717Z,55.33
2022-12-20T09:21:11.087Z,57.65
2022-12-20T09:23:38.936Z,56.42
2022-12-20T09:26:12.025Z,53.50
2022-12-20T09:28:39.659Z,56.63
2022-12-20T09:31:09.060Z,54.55
2022-12-20T09:33:36.589Z,54.42
2022-12-20T09:36:04.773Z,54.70
2022-12-20T09:38:33.025Z,53.78
2022-12-20T09:41:04.024Z,52.53
2022-12-20T09:43:32.567Z,52.22
2022-12-20T09:46:02.669Z,55.33
2022-12-20T09:48:37.257Z,53.53
2022-12-20T09:51:10.885Z,55.15
2022-12-20T09:54:15.599Z,51.60
2022-12-20T09:56:51.501Z,52.00
2022-12-20T09:59:20.842Z,50.00
2022-12-20T10:01:53.100Z,52.78
2022-12-20T10:04:25.017Z,52.90
2022-12-20T10:07:06.348Z,51.95
2022-12-20T10:10:08.525Z,50.10
2022-12-20T10:12:41.859Z,52.60
2022-12-20T10:15:19.231Z,52.90
2022-12-20T10:18:06.371Z,50.50
2022-12-20T10:20:57.989Z,49.42
2022-12-20T10:23:45.310Z,47.87
2022-12-20T10:26:14.120Z,46.22
2022-12-20T10:28:41.585Z,48.03
2022-12-20T10:31:14.017Z,46.78
2022-12-20T10:33:42.373Z,45.30
2022-12-20T10:36:27.117Z,45.78
2022-12-20T10:39:00.476Z,46.10
2022-12-20T10:41:28.985Z,49.53
2022-12-20T10:43:59.385Z,47.70
2022-12-20T10:46:43.625Z,45.72
2022-12-20T10:49:34.327Z,45.47
2022-12-20T10:52:13.332Z,49.55
2022-12-20T10:54:42.961Z,47.95
2022-12-20T10:57:16.316Z,48.00
2022-12-20T11:00:07.098Z,51.22
2022-12-20T11:02:42.648Z,49.03
2022-12-20T11:05:14.554Z,45.45
2022-12-20T11:10:46.054Z,44.33
2022-12-20T11:13:22.481Z,45.47
2022-12-20T11:15:54.796Z,47.20
2022-12-20T11:18:38.290Z,45.58
2022-12-20T11:21:28.586Z,45.05
2022-12-20T11:24:14.368Z,48.55
2022-12-20T11:27:15.104Z,45.17
2022-12-20T11:30:13.361Z,44.22
2022-12-20T11:32:49.384Z,44.35
2022-12-20T11:35:50.368Z,46.58
2022-12-20T11:38:31.931Z,48.05
2022-12-20T11:41:27.244Z,44.90
2022-12-20T11:44:26.534Z,44.40
2022-12-20T11:47:17.137Z,47.03
2022-12-20T11:49:44.622Z,45.63
2022-12-20T11:52:27.796Z,50.00
2022-12-20T11:55:12.977Z,49.20
2022-12-20T11:58:18.261Z,50.17
2022-12-20T12:00:55.049Z,49.17
2022-12-20T12:03:35.325Z,47.67
2022-12-20T12:06:12.449Z,46.35
2022-12-20T12:08:42.704Z,43.72
2022-12-20T12:14:52.116Z,44.63
2022-12-20T12:17:57.053Z,44.30
2022-12-20T12:20:24.416Z,47.78
2022-12-20T12:23:01.554Z,46.72
2022-12-20T12:25:28.976Z,49.28
2022-12-20T12:27:56.404Z,49.08
2022-12-20T12:30:24.404Z,50.45
2022-12-20T12:33:03.239Z,48.72
2022-12-20T12:35:51.248Z,51.05
2022-12-20T12:39:02.445Z,49.00
2022-12-20T12:41:53.530Z,48.63
2022-12-20T12:44:35.413Z,49.65
2022-12-20T12:47:11.796Z,51.78
2022-12-20T12:49:40.266Z,53.00
2022-12-20T12:52:07.737Z,54.85
2022-12-20T12:54:41.064Z,49.90
2022-12-20T12:57:16.945Z,52.55
2022-12-20T12:59:48.291Z,133.02
2022-12-20T13:02:16.577Z,58.63
2022-12-20T13:04:53.039Z,53.10
2022-12-20T13:07:32.751Z,89.90
2022-12-20T13:10:01.900Z,55.88
2022-12-20T13:12:38.157Z,79.85
2022-12-20T13:15:21.049Z,60.70
2022-12-20T13:18:13.494Z,51.15
2022-12-20T13:20:45.036Z,50.13
2022-12-20T13:23:17.411Z,53.00
2022-12-20T13:25:47.794Z,53.67
2022-12-20T13:28:24.687Z,52.50
2022-12-20T13:31:01.109Z,53.47
2022-12-20T13:33:43.388Z,52.85
2022-12-20T13:36:10.797Z,53.75
2022-12-20T13:38:47.039Z,52.25
2022-12-20T13:41:36.486Z,50.97
2022-12-20T13:44:10.739Z,52.20
2022-12-20T13:46:43.689Z,52.80
2022-12-20T13:49:38.606Z,52.20
2022-12-20T13:52:11.712Z,53.72
2022-12-20T13:54:44.670Z,53.75
2022-12-20T13:57:21.823Z,54.33
2022-12-20T13:59:53.080Z,58.22
2022-12-20T14:02:30.880Z,55.70
2022-12-20T14:05:16.371Z,57.20
2022-12-20T14:07:46.912Z,56.70
2022-12-20T14:10:21.601Z,56.15
2022-12-20T14:12:54.441Z,56.17
2022-12-20T14:15:26.212Z,54.10
2022-12-20T14:17:53.704Z,53.35
2022-12-20T14:20:25.860Z,54.28
2022-12-20T14:23:07.159Z,56.80
2022-12-20T14:25:58.400Z,55.67
2022-12-20T14:28:36.849Z,56.30
2022-12-20T14:31:06.218Z,57.85
2022-12-20T14:33:41.768Z,58.00
2022-12-20T14:36:20.819Z,58.22
2022-12-20T14:38:52.629Z,60.28
2022-12-20T14:41:46.343Z,61.60
2022-12-20T14:44:17.404Z,57.63
2022-12-20T14:46:59.448Z,60.00
2022-12-20T14:49:38.652Z,57.90
2022-12-20T14:52:11.946Z,59.75
2022-12-20T14:55:07.803Z,59.85
2022-12-20T14:57:36.056Z,58.28
2022-12-20T15:00:18.967Z,62.22
2022-12-20T15:02:46.611Z,60.25
2022-12-20T15:05:38.931Z,57.70
2022-12-20T15:08:16.902Z,62.13
2022-12-20T15:11:03.935Z,60.00
2022-12-20T15:13:34.389Z,115.75
2022-12-20T15:16:22.551Z,76.45
2022-12-20T15:18:55.258Z,59.83
2022-12-20T15:21:28.705Z,60.92
2022-12-20T15:23:57.865Z,57.83
2022-12-20T15:26:26.968Z,58.60
2022-12-20T15:28:54.941Z,57.08
2022-12-20T15:31:30.733Z,60.35
2022-12-20T15:34:02.326Z,59.03
2022-12-20T15:36:30.657Z,61.65
2022-12-20T15:39:15.200Z,62.30
2022-12-20T15:41:49.014Z,87.65
2022-12-20T15:44:22.742Z,87.25
2022-12-20T15:46:50.743Z,66.82
2022-12-20T15:49:24.209Z,63.42
2022-12-20T15:51:53.633Z,61.70
2022-12-20T15:54:28.325Z,61.50
2022-12-20T15:56:58.203Z,63.38
2022-12-20T15:59:58.341Z,65.88
2022-12-20T16:02:32.620Z,65.40
2022-12-20T16:05:01.544Z,63.53
2022-12-20T16:07:28.962Z,64.00
2022-12-20T16:09:56.388Z,64.07
2022-12-20T16:12:28.269Z,67.65
2022-12-20T16:14:55.636Z,63.28
2022-12-20T16:17:23.280Z,64.57
2022-12-20T16:19:50.716Z,64.25
2022-12-20T16:22:22.180Z,66.47
2022-12-20T16:24:50.674Z,68.25
2022-12-20T16:27:18.127Z,70.60
2022-12-20T16:29:45.754Z,65.60
2022-12-20T16:32:18.328Z,65.32
2022-12-20T16:34:46.161Z,66.82
2022-12-20T16:37:13.858Z,66.18
2022-12-20T16:39:42.528Z,69.10
2022-12-20T16:42:18.463Z,68.38
2022-12-20T16:44:47.740Z,70.32
2022-12-20T16:47:15.287Z,68.95
2022-12-20T16:49:51.675Z,67.30
2022-12-20T16:52:23.632Z,67.20
2022-12-20T16:54:51.360Z,76.68
2022-12-20T16:57:19.666Z,72.55
2022-12-20T16:59:47.064Z,75.72
2022-12-20T17:02:27.312Z,70.43
2022-12-20T17:04:55.464Z,86.07
2022-12-20T17:07:22.912Z,72.45
2022-12-20T17:09:50.430Z,70.90
2022-12-20T17:12:22.593Z,69.40
2022-12-20T17:14:50.085Z,70.45
2022-12-20T17:17:17.675Z,68.40
2022-12-20T17:19:45.184Z,70.03
2022-12-20T17:25:03.283Z,68.28
2022-12-20T17:27:31.007Z,68.13
2022-12-20T17:29:58.416Z,66.50
2022-12-20T17:32:26.229Z,65.47
2022-12-20T17:34:53.825Z,64.30
2022-12-20T17:37:21.768Z,74.72
2022-12-20T17:39:49.478Z,69.75
2022-12-20T17:42:17.180Z,67.45
2022-12-20T17:44:46.249Z,67.47
2022-12-20T17:47:13.955Z,76.82
2022-12-20T17:49:41.375Z,72.50
2022-12-20T17:52:15.760Z,66.40
2022-12-20T17:54:43.450Z,83.82
2022-12-20T17:57:19.674Z,74.65
2022-12-20T17:59:47.177Z,69.43
2022-12-20T18:02:21.424Z,73.55
2022-12-20T18:04:49.154Z,70.75
2022-12-20T18:07:16.660Z,69.50
2022-12-20T18:09:47.596Z,71.72
2022-12-20T18:12:15.058Z,70.03
2022-12-20T18:14:42.467Z,74.82
2022-12-20T18:17:09.931Z,70.20
2022-12-20T18:19:37.451Z,71.93
2022-12-20T18:22:05.026Z,72.95
2022-12-20T18:24:32.622Z,132.07
2022-12-20T18:27:00.204Z,93.03
2022-12-20T18:29:28.515Z,76.28
2022-12-20T18:31:55.992Z,71.22
2022-12-20T18:34:23.672Z,75.93
2022-12-20T18:36:51.067Z,74.40
2022-12-20T18:39:18.512Z,72.68
2022-12-20T18:41:46.389Z,76.35
2022-12-20T18:44:13.772Z,75.45
2022-12-20T18:46:41.162Z,71.55
2022-12-20T18:49:09.582Z,77.90
2022-12-20T18:51:37.386Z,77.15
2022-12-20T18:54:07.260Z,76.15
2022-12-20T18:56:37.496Z,84.30
2022-12-20T18:59:14.209Z,74.28
2022-12-20T19:01:42.733Z,70.47
2022-12-20T19:04:10.993Z,75.03
2022-12-20T19:06:38.735Z,71.00
2022-12-20T19:09:13.232Z,73.50
2022-12-20T19:11:40.992Z,72.28
2022-12-20T19:14:09.236Z,70.72
2022-12-20T19:16:39.676Z,71.30
2022-12-20T19:19:10.859Z,73.05
2022-12-20T19:21:42.825Z,74.78
2022-12-20T19:24:11.111Z,72.35
2022-12-20T19:26:39.717Z,71.38
2022-12-20T19:29:07.503Z,69.28
2022-12-20T19:31:37.446Z,72.20
2022-12-20T19:34:10.882Z,71.88
2022-12-20T19:36:41.246Z,73.47
2022-12-20T19:39:25.986Z,71.70
2022-12-20T19:42:22.944Z,72.35
2022-12-20T19:44:40.811Z,72.43
2022-12-20T19:47:08.209Z,70.80
2022-12-20T19:49:36.478Z,68.88
2022-12-20T19:52:05.870Z,69.72
2022-12-20T19:54:33.447Z,78.43
2022-12-20T19:57:00.897Z,71.05
2022-12-20T19:59:30.872Z,79.85
2022-12-20T20:01:59.403Z,77.63
2022-12-20T20:04:27.268Z,82.30
2022-12-20T20:06:57.542Z,74.25
2022-12-20T20:09:25.028Z,68.30
2022-12-20T20:11:52.398Z,89.60
2022-12-20T20:14:19.781Z,76.97
2022-12-20T20:16:47.459Z,79.65
2022-12-20T20:19:14.868Z,79.88
2022-12-20T20:21:42.424Z,75.82
2022-12-20T20:24:09.921Z,73.88
2022-12-20T20:26:37.537Z,68.95
2022-12-20T20:29:06.944Z,68.85
2022-12-20T20:31:36.319Z,69.25
2022-12-20T20:34:03.926Z,69.15
2022-12-20T20:36:31.628Z,82.93
2022-12-20T20:38:59.389Z,76.47
2022-12-20T20:41:26.967Z,72.65
2022-12-20T20:43:54.348Z,73.40
2022-12-20T20:46:22.645Z,74.20
2022-12-20T20:48:50.141Z,73.40
2022-12-20T20:51:17.523Z,72.35
2022-12-20T20:53:45.317Z,75.13
2022-12-20T20:56:13.070Z,70.90
2022-12-20T20:58:40.570Z,73.60
2022-12-20T21:01:09.140Z,72.03
2022-12-20T21:03:37.421Z,73.38
2022-12-20T21:08:56.121Z,70.40
2022-12-20T21:11:23.857Z,71.82
2022-12-20T21:13:52.777Z,70.82
2022-12-20T21:16:20.918Z,68.10
2022-12-20T21:18:53.077Z,72.65
2022-12-20T21:21:21.207Z,73.43
2022-12-20T21:23:49.118Z,74.18
2022-12-20T21:26:18.422Z,72.13
2022-12-20T21:28:47.259Z,68.78
2022-12-20T21:31:17.240Z,71.43
2022-12-20T21:33:46.199Z,67.88
2022-12-20T21:36:16.221Z,66.47
2022-12-20T21:38:50.444Z,66.15
2022-12-20T21:41:19.251Z,69.85
2022-12-20T21:43:46.689Z,68.95
2022-12-20T21:46:14.132Z,67.72
2022-12-20T21:48:43.499Z,68.32
2022-12-20T21:51:22.332Z,67.47
2022-12-20T21:53:52.105Z,73.70
2022-12-20T21:56:20.310Z,71.05
2022-12-20T21:58:48.537Z,68.18
2022-12-20T22:01:19.739Z,69.75
2022-12-20T22:03:53.712Z,52.80
2022-12-20T22:06:21.944Z,69.22
2022-12-20T22:08:49.885Z,73.25
2022-12-20T22:11:18.656Z,68.80
2022-12-20T22:13:46.575Z,94.53
2022-12-20T22:16:15.485Z,72.90
2022-12-20T22:18:44.576Z,69.28
2022-12-20T22:21:15.704Z,71.40
2022-12-20T22:23:43.476Z,67.72
2022-12-20T22:26:17.252Z,69.28
2022-12-20T22:28:50.217Z,73.95
2022-12-20T22:31:18.537Z,70.50
2022-12-20T22:33:46.255Z,74.65
2022-12-20T22:36:15.925Z,70.50
2022-12-20T22:38:44.734Z,71.95
2022-12-20T22:41:17.949Z,70.13
2022-12-20T22:43:47.298Z,70.03
2022-12-20T22:46:17.015Z,71.00
2022-12-20T22:48:45.785Z,74.13
2022-12-20T22:51:16.440Z,70.43
2022-12-20T22:53:44.756Z,68.88
2022-12-20T22:56:12.290Z,67.80
2022-12-20T22:58:40.036Z,69.22
2022-12-20T23:01:10.675Z,66.18
2022-12-20T23:03:39.005Z,71.07
2022-12-20T23:06:08.008Z,64.43
2022-12-20T23:08:37.406Z,65.60
2022-12-20T23:11:28.359Z,69.20
2022-12-20T23:14:14.224Z,67.57
2022-12-20T23:16:41.625Z,68.90
2022-12-20T23:19:09.131Z,68.13
2022-12-20T23:21:54.931Z,68.88
2022-12-20T23:24:22.477Z,70.68
2022-12-20T23:26:49.969Z,71.00
2022-12-20T23:29:17.573Z,67.60
2022-12-20T23:31:45.021Z,66.90
2022-12-20T23:34:12.437Z,74.40
2022-12-20T23:36:40.127Z,67.78
2022-12-20T23:39:07.884Z,67.68
2022-12-20T23:41:35.319Z,69.75
2022-12-20T23:44:06.815Z,68.57
2022-12-20T23:46:34.731Z,69.10
2022-12-20T23:49:02.162Z,66.57
2022-12-20T23:51:29.626Z,68.75
2022-12-20T23:53:57.135Z,66.43
2022-12-20T23:56:24.582Z,70.93
2022-12-20T23:58:53.995Z,67.10
